createdAt,value
2018-05-31T00:01:54.825Z,14.00
2018-05-31T00:04:23.901Z,13.80
2018-05-31T00:06:52.246Z,13.80
2018-05-31T00:09:20.618Z,13.70
2018-05-31T00:11:48.961Z,13.70
2018-05-31T00:14:17.313Z,13.70
2018-05-31T00:16:45.676Z,13.70
2018-05-31T00:19:13.984Z,13.70
2018-05-31T00:21:43.150Z,13.70
2018-05-31T00:24:11.613Z,13.70
2018-05-31T00:26:40.703Z,13.70
2018-05-31T00:29:09.021Z,13.70
2018-05-31T00:31:38.172Z,13.80
2018-05-31T00:34:06.567Z,13.70
2018-05-31T00:36:34.869Z,13.80
2018-05-31T00:39:03.184Z,13.80
2018-05-31T00:41:32.309Z,13.60
2018-05-31T00:44:00.627Z,13.60
2018-05-31T00:46:29.002Z,13.60
2018-05-31T00:48:57.309Z,13.70
2018-05-31T00:51:26.432Z,13.70
2018-05-31T00:53:54.706Z,13.60
2018-05-31T00:56:23.012Z,13.80
2018-05-31T00:58:51.377Z,13.70
2018-05-31T01:01:19.721Z,13.70
2018-05-31T01:03:48.030Z,13.60
2018-05-31T01:06:16.447Z,13.60
2018-05-31T01:08:44.819Z,13.60
2018-05-31T01:11:13.176Z,13.60
2018-05-31T01:13:42.304Z,13.60
2018-05-31T01:16:10.625Z,13.60
2018-05-31T01:18:39.112Z,13.60
2018-05-31T01:21:07.473Z,13.60
2018-05-31T01:23:36.551Z,13.50
2018-05-31T01:26:05.787Z,13.50
2018-05-31T01:28:34.127Z,13.50
2018-05-31T01:31:03.199Z,13.60
2018-05-31T01:33:31.554Z,13.60
2018-05-31T01:35:59.896Z,13.60
2018-05-31T01:38:32.481Z,13.70
2018-05-31T01:41:00.832Z,13.60
2018-05-31T01:43:29.965Z,13.50
2018-05-31T01:45:58.313Z,13.50
2018-05-31T01:48:26.644Z,13.40
2018-05-31T01:50:54.983Z,13.40
2018-05-31T01:53:24.205Z,13.60
2018-05-31T01:55:52.519Z,13.50
2018-05-31T01:58:20.849Z,13.50
2018-05-31T02:00:49.191Z,13.40
2018-05-31T02:03:17.635Z,13.40
2018-05-31T02:05:45.997Z,13.40
2018-05-31T02:08:14.357Z,13.30
2018-05-31T02:10:43.429Z,13.30
2018-05-31T02:13:11.740Z,13.30
2018-05-31T02:15:40.071Z,13.40
2018-05-31T02:18:08.458Z,13.30
2018-05-31T02:20:36.783Z,13.30
2018-05-31T02:23:05.103Z,13.30
2018-05-31T02:25:33.459Z,13.30
2018-05-31T02:28:01.800Z,13.30
2018-05-31T02:30:30.876Z,13.20
2018-05-31T02:32:59.221Z,13.20
2018-05-31T02:35:27.630Z,13.10
2018-05-31T02:37:55.941Z,13.10
2018-05-31T02:40:24.265Z,13.00
2018-05-31T02:42:52.608Z,13.10
2018-05-31T02:45:20.958Z,13.10
2018-05-31T02:47:50.101Z,13.10
2018-05-31T02:50:18.471Z,13.10
2018-05-31T02:52:46.857Z,13.00
2018-05-31T02:55:15.264Z,13.00
2018-05-31T02:57:43.569Z,12.90
2018-05-31T03:00:31.033Z,13.00
2018-05-31T03:02:59.358Z,12.90
2018-05-31T03:05:27.780Z,13.00
2018-05-31T03:07:56.119Z,13.10
2018-05-31T03:10:24.432Z,13.10
2018-05-31T03:12:52.795Z,13.00
2018-05-31T03:15:22.040Z,12.90
2018-05-31T03:17:50.443Z,12.90
2018-05-31T03:20:18.875Z,13.10
2018-05-31T03:22:47.949Z,13.10
2018-05-31T03:25:16.434Z,13.10
2018-05-31T03:27:45.708Z,13.10
2018-05-31T03:30:14.062Z,13.10
2018-05-31T03:32:42.414Z,13.00
2018-05-31T03:35:11.611Z,13.20
2018-05-31T03:37:40.137Z,13.20
2018-05-31T03:40:08.559Z,13.30
2018-05-31T03:42:37.644Z,13.40
2018-05-31T03:45:06.049Z,13.40
2018-05-31T03:47:34.390Z,13.40
2018-05-31T03:50:02.817Z,13.40
2018-05-31T03:52:31.225Z,13.50
2018-05-31T03:54:59.585Z,13.50
2018-05-31T03:57:27.936Z,13.60
2018-05-31T03:59:56.247Z,13.60
2018-05-31T04:02:24.611Z,13.70
2018-05-31T04:04:53.019Z,13.90
2018-05-31T04:07:21.368Z,14.00
2018-05-31T04:09:49.733Z,14.10
2018-05-31T04:12:18.826Z,14.20
2018-05-31T04:14:47.924Z,14.30
2018-05-31T04:17:17.013Z,14.30
2018-05-31T04:19:46.107Z,14.40
2018-05-31T04:22:15.227Z,14.50
2018-05-31T04:24:43.603Z,14.40
2018-05-31T04:27:12.013Z,14.50
2018-05-31T04:29:40.330Z,14.50
2018-05-31T04:32:08.676Z,14.60
2018-05-31T04:34:37.059Z,14.70
2018-05-31T04:37:05.540Z,14.80
2018-05-31T04:39:34.829Z,14.90
2018-05-31T04:42:03.204Z,15.00
2018-05-31T04:44:31.560Z,15.10
2018-05-31T04:46:59.942Z,15.20
2018-05-31T04:49:28.260Z,15.40
2018-05-31T04:51:56.589Z,15.50
2018-05-31T04:54:25.784Z,15.60
2018-05-31T04:56:54.126Z,15.60
2018-05-31T04:59:22.611Z,15.60
2018-05-31T05:01:50.959Z,15.70
2018-05-31T05:04:20.208Z,15.80
2018-05-31T05:06:48.578Z,15.90
2018-05-31T05:09:16.989Z,16.00
2018-05-31T05:11:46.145Z,16.40
2018-05-31T05:14:14.532Z,16.40
2018-05-31T05:16:43.750Z,16.70
2018-05-31T05:19:12.851Z,17.00
2018-05-31T05:21:41.942Z,17.00
2018-05-31T05:24:11.364Z,17.00
2018-05-31T05:26:39.723Z,16.90
2018-05-31T05:29:08.856Z,17.10
2018-05-31T05:31:37.226Z,17.00
2018-05-31T05:34:05.564Z,17.20
2018-05-31T05:36:34.125Z,17.30
2018-05-31T05:39:02.469Z,17.40
2018-05-31T05:41:30.830Z,17.60
2018-05-31T05:43:59.982Z,17.90
2018-05-31T05:46:28.311Z,17.80
2018-05-31T05:48:56.700Z,18.10
2018-05-31T05:51:25.039Z,18.20
2018-05-31T05:53:53.389Z,18.30
2018-05-31T05:56:21.874Z,18.40
2018-05-31T05:58:50.249Z,18.40
2018-05-31T06:01:18.588Z,18.50
2018-05-31T06:03:46.918Z,18.50
2018-05-31T06:06:15.257Z,18.60
2018-05-31T06:08:43.605Z,18.80
2018-05-31T06:11:12.696Z,19.10
2018-05-31T06:13:41.031Z,19.00
2018-05-31T06:16:09.538Z,19.20
2018-05-31T06:18:37.863Z,19.30
2018-05-31T06:21:06.947Z,19.50
2018-05-31T06:23:35.305Z,19.50
2018-05-31T06:26:03.626Z,19.60
2018-05-31T06:28:32.951Z,19.60
2018-05-31T06:31:01.271Z,19.60
2018-05-31T06:33:30.492Z,19.80
2018-05-31T06:35:59.574Z,20.00
2018-05-31T06:38:28.654Z,20.10
2018-05-31T06:40:57.087Z,20.10
2018-05-31T06:43:25.443Z,20.30
2018-05-31T06:45:53.813Z,20.50
2018-05-31T06:48:22.989Z,20.80
2018-05-31T06:50:51.305Z,20.70
2018-05-31T06:53:20.513Z,21.00
2018-05-31T06:55:48.886Z,21.00
2018-05-31T06:58:17.238Z,21.30
2018-05-31T07:00:45.562Z,21.40
2018-05-31T07:03:13.901Z,21.60
2018-05-31T07:05:43.060Z,22.10
2018-05-31T07:08:11.392Z,22.00
2018-05-31T07:10:40.607Z,22.20
2018-05-31T07:13:08.966Z,22.10
2018-05-31T07:15:38.173Z,22.50
2018-05-31T07:18:07.427Z,22.60
2018-05-31T07:20:35.744Z,22.60
2018-05-31T07:23:04.845Z,23.30
2018-05-31T07:25:33.909Z,23.60
2018-05-31T07:28:02.216Z,23.60
2018-05-31T07:30:31.413Z,24.60
2018-05-31T07:32:59.737Z,24.60
2018-05-31T07:35:28.121Z,25.30
2018-05-31T07:37:56.420Z,25.20
2018-05-31T07:40:25.737Z,25.10
2018-05-31T07:42:54.845Z,25.80
2018-05-31T07:45:23.917Z,26.10
2018-05-31T07:47:52.332Z,26.10
2018-05-31T07:50:20.622Z,26.50
2018-05-31T07:52:48.933Z,26.70
2018-05-31T07:55:17.298Z,26.70
2018-05-31T07:57:45.601Z,26.30
2018-05-31T08:00:15.671Z,26.00
2018-05-31T08:02:44.076Z,26.10
2018-05-31T08:05:12.527Z,26.90
2018-05-31T08:07:40.889Z,27.30
2018-05-31T08:10:09.249Z,27.10
2018-05-31T08:12:37.618Z,26.70
2018-05-31T08:15:05.921Z,26.20
2018-05-31T08:17:35.127Z,26.10
2018-05-31T08:20:04.223Z,26.50
2018-05-31T08:22:33.301Z,26.80
2018-05-31T08:25:01.597Z,26.70
2018-05-31T08:27:30.842Z,27.40
2018-05-31T08:29:59.209Z,27.30
2018-05-31T08:32:27.549Z,27.60
2018-05-31T08:34:56.706Z,28.50
2018-05-31T08:37:24.996Z,28.50
2018-05-31T08:39:53.304Z,29.20
2018-05-31T08:42:22.427Z,29.40
2018-05-31T08:44:50.801Z,29.40
2018-05-31T08:47:19.149Z,29.80
2018-05-31T08:49:47.567Z,30.10
2018-05-31T08:52:15.961Z,29.90
2018-05-31T08:54:44.264Z,29.60
2018-05-31T08:57:12.634Z,28.80
2018-05-31T08:59:40.951Z,28.20
2018-05-31T09:02:10.077Z,27.40
2018-05-31T09:04:38.431Z,27.40
2018-05-31T09:07:06.815Z,27.70
2018-05-31T09:09:35.979Z,28.10
2018-05-31T09:12:05.109Z,28.10
2018-05-31T09:14:34.251Z,27.90
2018-05-31T09:17:02.634Z,27.90
2018-05-31T09:19:31.060Z,27.60
2018-05-31T09:21:59.410Z,27.30
2018-05-31T09:24:27.750Z,27.20
2018-05-31T09:26:56.111Z,27.10
2018-05-31T09:29:24.533Z,27.20
2018-05-31T09:31:52.870Z,27.00
2018-05-31T09:34:22.029Z,26.50
2018-05-31T09:36:50.405Z,26.40
2018-05-31T09:39:18.888Z,26.30
2018-05-31T09:41:47.196Z,26.30
2018-05-31T09:44:16.395Z,26.30
2018-05-31T09:46:45.454Z,26.40
2018-05-31T09:49:13.821Z,26.40
2018-05-31T09:51:42.208Z,26.60
2018-05-31T09:54:11.418Z,26.40
2018-05-31T09:56:39.783Z,26.40
2018-05-31T09:59:08.236Z,26.00
2018-05-31T10:01:36.607Z,25.90
2018-05-31T10:04:05.116Z,26.00
2018-05-31T10:06:33.495Z,26.80
2018-05-31T10:09:01.872Z,27.10
2018-05-31T10:11:30.252Z,27.50
2018-05-31T10:13:58.656Z,27.80
2018-05-31T10:16:26.980Z,27.70
2018-05-31T10:18:55.367Z,27.30
2018-05-31T10:21:23.716Z,27.80
2018-05-31T10:23:52.103Z,28.00
2018-05-31T10:26:21.194Z,28.50
2018-05-31T10:28:50.388Z,28.60
2018-05-31T10:31:20.394Z,28.50
2018-05-31T10:33:48.930Z,28.40
2018-05-31T10:36:17.447Z,28.10
2018-05-31T10:38:45.750Z,28.20
2018-05-31T10:41:14.916Z,27.80
2018-05-31T10:43:44.193Z,27.50
2018-05-31T10:46:12.682Z,27.50
2018-05-31T10:48:41.055Z,26.90
2018-05-31T10:51:10.419Z,26.40
2018-05-31T10:53:39.516Z,25.90
2018-05-31T10:56:10.709Z,26.20
2018-05-31T10:58:39.590Z,26.20
2018-05-31T11:01:08.300Z,26.60
2018-05-31T11:03:36.722Z,27.00
2018-05-31T11:06:05.230Z,27.50
2018-05-31T11:08:33.645Z,27.40
2018-05-31T11:11:01.990Z,27.30
2018-05-31T11:13:30.631Z,27.20
2018-05-31T11:15:59.869Z,27.90
2018-05-31T11:18:29.031Z,27.90
2018-05-31T11:20:57.614Z,28.30
2018-05-31T11:23:26.041Z,28.70
2018-05-31T11:25:54.730Z,28.60
2018-05-31T11:28:23.472Z,27.90
2018-05-31T11:30:52.839Z,27.30
2018-05-31T11:33:21.764Z,27.30
2018-05-31T11:35:50.208Z,27.50
2018-05-31T11:38:18.892Z,27.80
2018-05-31T11:40:47.379Z,28.00
2018-05-31T11:43:16.244Z,28.40
2018-05-31T11:45:45.424Z,28.70
2018-05-31T11:48:14.940Z,28.60
2018-05-31T11:50:44.081Z,28.70
2018-05-31T11:53:13.687Z,28.70
2018-05-31T11:55:42.357Z,28.40
2018-05-31T11:58:10.829Z,28.60
2018-05-31T12:00:39.290Z,28.40
2018-05-31T12:03:08.426Z,28.20
2018-05-31T12:05:36.837Z,27.90
2018-05-31T12:08:05.371Z,28.10
2018-05-31T12:10:35.397Z,28.50
2018-05-31T12:13:03.897Z,28.40
2018-05-31T12:15:32.476Z,28.10
2018-05-31T12:18:00.969Z,28.10
2018-05-31T12:20:30.840Z,28.10
2018-05-31T12:22:59.198Z,28.00
2018-05-31T12:25:28.338Z,29.00
2018-05-31T12:27:56.687Z,29.00
2018-05-31T12:30:26.218Z,29.20
2018-05-31T12:32:55.983Z,29.40
2018-05-31T12:35:25.403Z,29.30
2018-05-31T12:37:54.121Z,29.20
2018-05-31T12:40:23.195Z,29.30
2018-05-31T12:42:52.508Z,28.40
2018-05-31T12:45:21.767Z,28.40
2018-05-31T12:47:50.868Z,28.10
2018-05-31T12:50:20.089Z,28.20
2018-05-31T12:52:48.710Z,28.10
2018-05-31T12:55:17.266Z,28.60
2018-05-31T12:57:45.773Z,29.40
2018-05-31T13:00:15.069Z,29.50
2018-05-31T13:02:44.073Z,29.50
2018-05-31T13:05:13.676Z,29.60
2018-05-31T13:07:42.540Z,30.10
2018-05-31T13:10:11.610Z,29.90
2018-05-31T13:12:40.001Z,30.00
2018-05-31T13:15:09.815Z,28.00
2018-05-31T13:17:38.920Z,28.00
2018-05-31T13:20:07.861Z,27.00
2018-05-31T13:22:37.688Z,26.20
2018-05-31T13:25:06.736Z,25.80
2018-05-31T13:27:36.031Z,25.20
2018-05-31T13:30:04.643Z,25.20
2018-05-31T13:32:33.068Z,24.90
2018-05-31T13:35:02.253Z,24.40
2018-05-31T13:37:30.627Z,24.40
2018-05-31T13:40:00.164Z,23.70
2018-05-31T13:42:29.361Z,22.90
2018-05-31T13:44:58.418Z,22.90
2018-05-31T13:47:27.297Z,22.70
2018-05-31T13:49:56.043Z,22.40
2018-05-31T13:52:24.613Z,22.10
2018-05-31T13:54:53.869Z,21.50
2018-05-31T13:57:22.460Z,21.50
2018-05-31T13:59:51.397Z,21.20
2018-05-31T14:02:21.014Z,20.90
2018-05-31T14:04:50.211Z,20.40
2018-05-31T14:07:18.576Z,20.40
2018-05-31T14:09:46.959Z,20.10
2018-05-31T14:12:16.091Z,19.50
2018-05-31T14:14:44.833Z,19.50
2018-05-31T14:17:13.458Z,19.40
2018-05-31T14:19:41.809Z,19.40
2018-05-31T14:22:11.031Z,19.30
2018-05-31T14:24:39.437Z,19.30
2018-05-31T14:27:07.977Z,19.40
2018-05-31T14:29:36.340Z,19.60
2018-05-31T14:32:05.505Z,20.70
2018-05-31T14:34:33.853Z,20.60
2018-05-31T14:37:02.248Z,21.30
2018-05-31T14:39:30.694Z,22.10
2018-05-31T14:41:59.832Z,23.60
2018-05-31T14:44:28.390Z,23.50
2018-05-31T14:46:56.741Z,23.90
2018-05-31T14:49:25.938Z,24.90
2018-05-31T14:51:55.095Z,25.10
2018-05-31T14:54:23.461Z,25.00
2018-05-31T14:56:51.932Z,25.10
2018-05-31T14:59:20.762Z,24.90
2018-05-31T15:01:49.181Z,24.80
2018-05-31T15:04:17.539Z,24.30
2018-05-31T15:06:45.860Z,24.10
2018-05-31T15:09:14.462Z,24.00
2018-05-31T15:11:43.028Z,23.90
2018-05-31T15:14:11.573Z,23.60
2018-05-31T15:16:40.014Z,23.50
2018-05-31T15:19:08.489Z,22.90
2018-05-31T15:21:36.906Z,22.20
2018-05-31T15:24:05.437Z,21.60
2018-05-31T15:26:33.792Z,21.30
2018-05-31T15:29:03.041Z,20.60
2018-05-31T15:31:31.455Z,20.60
2018-05-31T15:34:00.685Z,20.10
2018-05-31T15:36:30.455Z,19.90
2018-05-31T15:38:58.874Z,19.90
2018-05-31T15:41:27.346Z,19.80
2018-05-31T15:43:55.723Z,19.60
2018-05-31T15:46:24.915Z,19.40
2018-05-31T15:48:54.316Z,19.50
2018-05-31T15:51:24.090Z,19.50
2018-05-31T15:53:52.930Z,19.70
2018-05-31T15:56:22.577Z,20.20
2018-05-31T15:58:51.287Z,20.20
2018-05-31T16:01:22.020Z,20.30
2018-05-31T16:03:50.647Z,20.40
2018-05-31T16:06:19.425Z,20.30
2018-05-31T16:08:48.947Z,20.30
2018-05-31T16:11:18.122Z,21.10
2018-05-31T16:13:46.565Z,21.10
2018-05-31T16:16:15.835Z,22.40
2018-05-31T16:18:44.205Z,22.30
2018-05-31T16:21:13.326Z,22.90
2018-05-31T16:23:41.686Z,22.90
2018-05-31T16:26:10.065Z,23.00
2018-05-31T16:28:38.495Z,22.70
2018-05-31T16:31:07.060Z,22.70
2018-05-31T16:33:35.453Z,22.70
2018-05-31T16:36:03.825Z,22.70
2018-05-31T16:38:32.264Z,22.50
2018-05-31T16:41:01.412Z,22.50
2018-05-31T16:43:29.786Z,22.40
2018-05-31T16:45:58.239Z,22.50
2018-05-31T16:48:26.637Z,22.40
2018-05-31T16:50:54.989Z,22.40
2018-05-31T16:53:24.153Z,22.50
2018-05-31T16:55:52.526Z,22.50
2018-05-31T16:58:20.885Z,22.50
2018-05-31T17:00:49.260Z,22.40
2018-05-31T17:03:17.623Z,22.40
2018-05-31T17:05:45.986Z,22.40
2018-05-31T17:08:14.444Z,22.40
2018-05-31T17:10:43.639Z,22.90
2018-05-31T17:13:12.801Z,23.30
2018-05-31T17:15:41.161Z,23.30
2018-05-31T17:18:09.509Z,23.70
2018-05-31T17:20:37.852Z,24.00
2018-05-31T17:23:06.235Z,24.40
2018-05-31T17:25:34.565Z,24.30
2018-05-31T17:28:02.914Z,23.90
2018-05-31T17:30:32.112Z,23.20
2018-05-31T17:33:01.260Z,22.80
2018-05-31T17:35:29.689Z,22.80
2018-05-31T17:37:58.767Z,22.50
2018-05-31T17:40:27.122Z,22.50
2018-05-31T17:42:55.854Z,22.30
2018-05-31T17:45:24.296Z,22.10
2018-05-31T17:47:52.651Z,22.20
2018-05-31T17:50:21.718Z,22.20
2018-05-31T17:52:50.873Z,22.40
2018-05-31T17:55:20.011Z,22.60
2018-05-31T17:57:48.386Z,22.60
2018-05-31T18:00:17.491Z,22.70
2018-05-31T18:02:45.890Z,22.70
2018-05-31T18:05:15.046Z,22.80
2018-05-31T18:07:44.124Z,23.00
2018-05-31T18:10:12.429Z,23.00
2018-05-31T18:12:41.596Z,23.10
2018-05-31T18:15:09.899Z,23.10
2018-05-31T18:17:38.272Z,23.20
2018-05-31T18:20:07.577Z,23.30
2018-05-31T18:22:35.953Z,23.60
2018-05-31T18:25:04.380Z,23.70
2018-05-31T18:27:32.776Z,23.70
2018-05-31T18:30:01.208Z,23.30
2018-05-31T18:32:30.276Z,22.90
2018-05-31T18:34:58.577Z,22.90
2018-05-31T18:37:27.654Z,22.20
2018-05-31T18:39:55.976Z,22.20
2018-05-31T18:42:25.128Z,21.80
2018-05-31T18:44:54.321Z,21.50
2018-05-31T18:47:22.736Z,21.50
2018-05-31T18:49:51.155Z,21.30
2018-05-31T18:52:19.613Z,21.00
2018-05-31T18:54:48.074Z,20.70
2018-05-31T18:57:17.424Z,20.30
2018-05-31T18:59:45.818Z,20.20
2018-05-31T19:02:14.213Z,20.10
2018-05-31T19:04:42.519Z,19.90
2018-05-31T19:07:10.893Z,19.70
2018-05-31T19:09:39.239Z,19.50
2018-05-31T19:12:07.582Z,19.30
2018-05-31T19:14:35.897Z,19.10
2018-05-31T19:17:04.234Z,19.00
2018-05-31T19:19:38.424Z,18.90
2018-05-31T19:22:07.524Z,18.70
2018-05-31T19:24:42.418Z,18.60
2018-05-31T19:27:10.776Z,18.60
2018-05-31T19:29:39.155Z,18.40
2018-05-31T19:32:07.747Z,18.30
2018-05-31T19:34:36.044Z,18.20
2018-05-31T19:37:10.180Z,18.00
2018-05-31T19:39:39.294Z,17.90
2018-05-31T19:45:11.499Z,17.80
2018-05-31T19:47:39.869Z,17.70
2018-05-31T19:50:08.242Z,17.60
2018-05-31T19:52:42.197Z,17.50
2018-05-31T19:55:10.546Z,17.50
2018-05-31T19:57:44.774Z,17.40
2018-05-31T20:00:18.825Z,17.30
2018-05-31T20:02:53.691Z,17.10
2018-05-31T20:05:22.964Z,17.10
2018-05-31T20:07:52.158Z,17.00
2018-05-31T20:10:20.733Z,17.00
2018-05-31T20:12:49.070Z,17.00
2018-05-31T20:15:17.376Z,17.00
2018-05-31T20:17:46.603Z,16.90
2018-05-31T20:20:15.012Z,16.90
2018-05-31T20:22:43.881Z,16.90
2018-05-31T20:25:12.217Z,16.80
2018-05-31T20:27:40.590Z,16.70
2018-05-31T20:30:09.702Z,16.60
2018-05-31T20:32:38.152Z,16.50
2018-05-31T20:35:07.225Z,16.50
2018-05-31T20:37:35.664Z,16.40
2018-05-31T20:40:03.987Z,16.40
2018-05-31T20:42:32.300Z,16.40
2018-05-31T20:45:00.800Z,16.40
2018-05-31T20:47:29.144Z,16.40
2018-05-31T20:49:57.698Z,16.30
2018-05-31T20:52:26.795Z,16.20
2018-05-31T20:54:55.206Z,16.20
2018-05-31T20:57:23.532Z,16.20
2018-05-31T20:59:51.867Z,16.10
2018-05-31T21:02:20.253Z,16.10
2018-05-31T21:04:48.599Z,16.10
2018-05-31T21:07:17.367Z,16.00
2018-05-31T21:09:46.437Z,16.00
2018-05-31T21:12:16.334Z,16.00
2018-05-31T21:14:44.668Z,16.00
2018-05-31T21:17:13.879Z,15.90
2018-05-31T21:19:43.305Z,15.80
2018-05-31T21:22:11.668Z,15.80
2018-05-31T21:24:40.053Z,15.80
2018-05-31T21:27:08.531Z,15.70
2018-05-31T21:29:36.907Z,15.70
2018-05-31T21:32:06.068Z,15.80
2018-05-31T21:34:34.394Z,15.70
2018-05-31T21:37:02.769Z,15.70
2018-05-31T21:39:31.272Z,15.70
2018-05-31T21:41:59.685Z,15.70
2018-05-31T21:44:29.515Z,15.60
2018-05-31T21:46:58.597Z,15.50
2018-05-31T21:49:28.475Z,15.50
2018-05-31T21:51:56.844Z,15.50
2018-05-31T21:54:25.264Z,15.50
2018-05-31T21:56:55.211Z,15.40
2018-05-31T21:59:24.324Z,15.50
2018-05-31T22:01:52.668Z,15.40
2018-05-31T22:04:21.057Z,15.40
2018-05-31T22:06:50.136Z,15.30
2018-05-31T22:09:19.985Z,15.20
2018-05-31T22:11:48.297Z,15.20
2018-05-31T22:14:16.648Z,15.20
2018-05-31T22:16:45.056Z,15.20
2018-05-31T22:19:13.507Z,15.30
2018-05-31T22:21:41.840Z,15.30
2018-05-31T22:24:10.151Z,15.30
2018-05-31T22:26:39.247Z,15.20
2018-05-31T22:29:08.443Z,15.20
2018-05-31T22:31:37.537Z,15.10
2018-05-31T22:34:06.673Z,15.20
2018-05-31T22:36:35.193Z,15.20
2018-05-31T22:39:05.940Z,15.10
2018-05-31T22:41:34.314Z,15.10
2018-05-31T22:44:03.614Z,15.00
2018-05-31T22:46:32.756Z,15.00
2018-05-31T22:49:02.118Z,14.90
2018-05-31T22:51:31.238Z,14.90
2018-05-31T22:54:00.483Z,14.80
2018-05-31T22:56:28.814Z,14.90
2018-05-31T22:58:58.030Z,14.80
2018-05-31T23:01:26.466Z,14.80
2018-05-31T23:03:56.359Z,14.70
2018-05-31T23:06:25.496Z,14.80
2018-05-31T23:08:54.680Z,14.90
2018-05-31T23:11:24.707Z,14.90
2018-05-31T23:13:53.879Z,14.90
2018-05-31T23:16:22.257Z,14.90
2018-05-31T23:18:50.637Z,14.70
2018-05-31T23:21:20.600Z,14.70
2018-05-31T23:23:49.661Z,14.70
2018-05-31T23:26:18.071Z,14.70
2018-05-31T23:28:47.214Z,14.70
2018-05-31T23:31:15.525Z,14.70
2018-05-31T23:33:45.446Z,14.50
2018-05-31T23:36:13.743Z,14.50
2018-05-31T23:38:42.862Z,14.50
2018-05-31T23:41:11.237Z,14.50
2018-05-31T23:43:39.621Z,14.50
2018-05-31T23:46:08.020Z,14.50
2018-05-31T23:48:36.363Z,14.50
2018-05-31T23:51:04.728Z,14.60
2018-05-31T23:53:33.867Z,14.60
2018-05-31T23:56:02.225Z,14.60
2018-05-31T23:58:31.328Z,14.70
